Time;durP1;ratioP1;P1;durP2;ratioP2;P2;SDS_P1;SDS_P2;PMS_P1;PMS_P2;Temp;Humidity;BMP_temperature;BMP_pressure;BME280_temperature;BME280_humidity;BME280_pressure;Samples;Min_cycle;Max_cycle;Signal;HPM_P1;HPM_P2
2024/01/02 00:01:17;;;;;;;0.10;0.10;;;;;;;;;;5062366;28;20039;-92
2024/01/02 00:03:43;;;;;;;0.10;0.10;;;;;;;;;;5057840;28;20379;-91
2024/01/02 00:06:13;;;;;;;0.10;0.10;;;6.00;99.90;;;;;;5076585;28;20032;-92
2024/01/02 00:08:39;;;;;;;0.10;0.10;;;;;;;;;;5058677;28;20123;-93
2024/01/02 00:11:05;;;;;;;0.10;0.10;;;;;;;;;;5059701;28;20068;-93
2024/01/02 00:13:31;;;;;;;0.10;0.10;;;;;;;;;;5056881;28;20053;-94
2024/01/02 00:15:57;;;;;;;0.10;0.10;;;;;;;;;;5057729;28;20029;-94
2024/01/02 00:18:23;;;;;;;0.10;0.10;;;;;;;;;;5067132;28;20020;-96
2024/01/02 00:20:49;;;;;;;0.10;0.10;;;;;;;;;;5072824;28;20027;-95
2024/01/02 00:23:15;;;;;;;0.10;0.10;;;;;;;;;;5067211;28;20029;-92
2024/01/02 00:25:41;;;;;;;0.10;0.10;;;;;;;;;;5060560;28;20021;-94
2024/01/02 00:28:07;;;;;;;0.10;0.10;;;;;;;;;;5058396;28;20054;-93
2024/01/02 00:30:34;;;;;;;0.10;0.10;;;;;;;;;;5061998;28;20021;-93
2024/01/02 00:33:03;;;;;;;0.10;0.10;;;;;;;;;;5057278;28;20028;-94
2024/01/02 00:35:29;;;;;;;0.10;0.10;;;;;;;;;;5058868;28;20032;-93
2024/01/02 00:37:55;;;;;;;0.10;0.10;;;;;;;;;;5067892;28;20290;-93
2024/01/02 00:40:21;;;;;;;0.10;0.10;;;;;;;;;;5075988;28;20020;-93
2024/01/02 00:42:46;;;;;;;0.10;0.10;;;;;;;;;;5082134;28;20043;-93
2024/01/02 00:45:12;;;;;;;0.10;0.10;;;;;;;;;;5080958;28;20094;-93
2024/01/02 00:47:38;;;;;;;0.10;0.10;;;;;;;;;;5078989;28;20115;-94
2024/01/02 00:50:05;;;;;;;0.10;0.10;;;;;;;;;;5077759;28;20029;-93
2024/01/02 00:52:30;;;;;;;0.10;0.10;;;;;;;;;;5084870;28;20032;-93
2024/01/02 00:54:56;;;;;;;0.10;0.10;;;;;;;;;;5079883;28;20028;-93
2024/01/02 00:57:22;;;;;;;0.10;0.10;;;;;;;;;;5074840;28;20044;-93
2024/01/02 00:59:48;;;;;;;0.10;0.10;;;;;;;;;;5078841;28;20056;-93
2024/01/02 01:02:14;;;;;;;0.10;0.10;;;;;;;;;;5081798;28;20017;-93
2024/01/02 01:04:43;;;;;;;0.10;0.10;;;6.80;99.90;;;;;;5079298;28;20632;-92
2024/01/02 01:07:10;;;;;;;0.10;0.10;;;;;;;;;;5083128;28;20027;-93
2024/01/02 01:09:36;;;;;;;0.08;0.08;;;;;;;;;;5077449;28;20029;-93
2024/01/02 01:12:03;;;;;;;0.00;0.00;;;6.70;99.90;;;;;;5078567;28;20015;-92
2024/01/02 01:14:28;;;;;;;0.10;0.10;;;;;;;;;;5084897;28;20110;-93
2024/01/02 01:16:54;;;;;;;0.10;0.10;;;;;;;;;;5079996;28;20499;-93
2024/01/02 01:19:20;;;;;;;0.00;0.00;;;;;;;;;;5080249;28;20107;-93
2024/01/02 01:21:46;;;;;;;0.10;0.10;;;;;;;;;;5077224;28;20052;-93
2024/01/02 01:24:12;;;;;;;0.10;0.10;;;;;;;;;;5081365;28;20040;-92
2024/01/02 01:26:38;;;;;;;0.10;0.10;;;;;;;;;;5079082;28;20029;-93
2024/01/02 01:29:04;;;;;;;0.10;0.10;;;;;;;;;;5080195;28;20029;-93
2024/01/02 01:31:30;;;;;;;0.00;0.00;;;;;;;;;;5073620;28;20244;-92
2024/01/02 01:33:56;;;;;;;0.10;0.10;;;;;;;;;;5080447;28;20038;-93
2024/01/02 01:36:22;;;;;;;0.10;0.10;;;;;;;;;;5077505;28;20024;-93
2024/01/02 01:38:48;;;;;;;0.10;0.10;;;;;;;;;;5080736;28;20033;-92
2024/01/02 01:41:14;;;;;;;0.10;0.10;;;;;;;;;;5078039;28;20057;-92
2024/01/02 01:43:40;;;;;;;0.10;0.10;;;;;;;;;;5081461;28;20038;-92
2024/01/02 01:46:06;;;;;;;0.10;0.10;;;;;;;;;;5080957;28;20307;-93
2024/01/02 01:48:32;;;;;;;0.10;0.10;;;;;;;;;;5078634;28;20047;-94
2024/01/02 01:50:58;;;;;;;0.10;0.10;;;;;;;;;;5077536;28;20489;-92
2024/01/02 01:53:24;;;;;;;0.10;0.10;;;;;;;;;;5079992;28;20035;-94
2024/01/02 01:55:50;;;;;;;0.10;0.10;;;;;;;;;;5080243;28;20549;-93
2024/01/02 01:58:17;;;;;;;0.03;0.03;;;;;;;;;;5084167;28;20066;-92
2024/01/02 02:00:43;;;;;;;0.10;0.10;;;;;;;;;;5077194;28;20028;-92
2024/01/02 02:03:09;;;;;;;0.03;0.03;;;;;;;;;;5076637;28;20028;-92
2024/01/02 02:05:36;;;;;;;0.10;0.10;;;;;;;;;;5079512;28;20021;-95
2024/01/02 02:08:02;;;;;;;0.10;0.10;;;;;;;;;;5093756;28;20110;-95
2024/01/02 02:10:29;;;;;;;0.10;0.10;;;7.10;99.90;;;;;;5093440;28;20013;-94
2024/01/02 02:12:55;;;;;;;0.10;0.10;;;;;;;;;;5088822;28;20037;-94
2024/01/02 02:15:21;;;;;;;0.10;0.10;;;7.20;99.90;;;;;;5082635;28;20047;-93
2024/01/02 02:17:47;;;;;;;0.10;0.10;;;;;;;;;;5075729;28;20067;-93
2024/01/02 02:20:13;;;;;;;0.10;0.10;;;;;;;;;;5071022;28;20025;-92
2024/01/02 02:22:44;;;;;;;0.10;0.10;;;7.10;99.90;;;;;;5084255;28;20028;-94
2024/01/02 02:25:10;;;;;;;0.10;0.10;;;;;;;;;;5073126;28;20031;-93
2024/01/02 02:27:36;;;;;;;0.00;0.00;;;;;;;;;;5076005;28;20041;-94
2024/01/02 02:30:02;;;;;;;0.10;0.10;;;;;;;;;;5094475;28;20096;-94
2024/01/02 02:32:28;;;;;;;0.10;0.10;;;;;;;;;;5079857;28;20036;-94
2024/01/02 02:34:54;;;;;;;0.10;0.10;;;;;;;;;;5090542;28;20118;-94
2024/01/02 02:37:20;;;;;;;0.10;0.10;;;;;;;;;;5078247;28;20483;-92
2024/01/02 02:39:46;;;;;;;0.10;0.10;;;;;;;;;;5078452;28;20515;-93
2024/01/02 02:42:12;;;;;;;0.10;0.10;;;;;;;;;;5086630;28;20040;-94
2024/01/02 02:44:38;;;;;;;0.10;0.10;;;;;;;;;;5084327;28;20028;-93
2024/01/02 02:47:03;;;;;;;0.10;0.10;;;;;;;;;;5069541;28;20118;-93
2024/01/02 02:49:31;;;;;;;0.10;0.10;;;;;;;;;;5070947;28;20105;-94
2024/01/02 02:51:57;;;;;;;0.10;0.10;;;;;;;;;;5076335;28;20028;-93
2024/01/02 02:54:23;;;;;;;0.10;0.10;;;;;;;;;;5079651;28;20033;-94
2024/01/02 02:56:49;;;;;;;0.10;0.10;;;;;;;;;;5073684;28;20054;-92
2024/01/02 02:59:14;;;;;;;0.10;0.10;;;;;;;;;;5088946;28;20025;-94
2024/01/02 03:01:41;;;;;;;0.00;0.00;;;;;;;;;;5078572;28;20024;-95
2024/01/02 03:04:07;;;;;;;0.10;0.10;;;;;;;;;;5090448;28;20029;-92
2024/01/02 03:06:33;;;;;;;0.10;0.10;;;;;;;;;;5084041;28;20392;-94
2024/01/02 03:08:59;;;;;;;0.10;0.10;;;;;;;;;;5079972;28;20092;-94
2024/01/02 03:11:25;;;;;;;0.10;0.10;;;;;;;;;;5073439;28;20020;-93
2024/01/02 03:13:51;;;;;;;0.10;0.10;;;;;;;;;;5079306;28;20028;-94
2024/01/02 03:16:17;;;;;;;0.10;0.10;;;;;;;;;;5078336;28;20024;-94
2024/01/02 03:18:43;;;;;;;0.10;0.10;;;;;;;;;;5079478;28;20060;-93
2024/01/02 03:21:10;;;;;;;0.10;0.10;;;;;;;;;;5072426;28;20067;-91
2024/01/02 03:23:36;;;;;;;0.10;0.10;;;;;;;;;;5084585;28;20063;-93
2024/01/02 03:26:02;;;;;;;0.10;0.10;;;;;;;;;;5076847;28;20024;-94
2024/01/02 03:28:28;;;;;;;0.10;0.10;;;;;;;;;;5088759;28;20029;-93
2024/01/02 03:30:54;;;;;;;0.00;0.00;;;;;;;;;;5075347;28;20028;-94
2024/01/02 03:33:20;;;;;;;0.10;0.10;;;;;;;;;;5076584;28;20028;-94
2024/01/02 03:35:47;;;;;;;0.10;0.10;;;;;;;;;;5069986;28;20206;-95
2024/01/02 03:38:13;;;;;;;0.10;0.10;;;;;;;;;;5076106;28;20033;-93
2024/01/02 03:40:39;;;;;;;0.10;0.10;;;;;;;;;;5072238;28;20044;-92
2024/01/02 03:43:05;;;;;;;0.10;0.10;;;;;;;;;;5078022;28;20036;-93
2024/01/02 03:45:31;;;;;;;0.10;0.10;;;;;;;;;;5074320;28;20067;-93
2024/01/02 03:47:57;;;;;;;0.10;0.10;;;;;;;;;;5065253;28;20029;-93
2024/01/02 03:50:23;;;;;;;0.10;0.10;;;;;;;;;;5075278;28;20028;-92
2024/01/02 03:52:49;;;;;;;0.10;0.10;;;;;;;;;;5073186;28;20086;-94
2024/01/02 03:55:15;;;;;;;0.10;0.10;;;;;;;;;;5075161;28;20024;-92
2024/01/02 03:57:41;;;;;;;0.10;0.10;;;;;;;;;;5070326;28;20029;-94
2024/01/02 04:00:08;;;;;;;0.10;0.10;;;;;;;;;;5075805;28;20043;-92
2024/01/02 04:02:34;;;;;;;0.00;0.00;;;;;;;;;;5092438;28;20039;-93
2024/01/02 04:05:00;;;;;;;0.00;0.00;;;;;;;;;;5067879;28;20112;-93
2024/01/02 04:07:26;;;;;;;0.10;0.10;;;;;;;;;;5082405;28;20029;-93
2024/01/02 04:09:52;;;;;;;0.10;0.10;;;;;;;;;;5076473;28;20028;-93
2024/01/02 04:12:18;;;;;;;0.10;0.10;;;;;;;;;;5079496;28;20028;-93
2024/01/02 04:14:44;;;;;;;0.10;0.10;;;;;;;;;;5076201;28;20087;-93
2024/01/02 04:17:10;;;;;;;0.10;0.10;;;;;;;;;;5082424;28;20028;-93
2024/01/02 04:19:35;;;;;;;0.10;0.10;;;;;;;;;;5075692;28;20045;-93
2024/01/02 04:22:01;;;;;;;0.10;0.10;;;;;;;;;;5074820;28;20024;-94
2024/01/02 04:24:27;;;;;;;0.10;0.10;;;;;;;;;;5076327;28;20024;-94
2024/01/02 04:26:53;;;;;;;0.10;0.10;;;;;;;;;;5073658;28;20027;-93
2024/01/02 04:29:19;;;;;;;0.10;0.10;;;;;;;;;;5074864;28;20387;-92
2024/01/02 04:31:45;;;;;;;0.10;0.10;;;;;;;;;;5076405;28;20028;-94
2024/01/02 04:34:11;;;;;;;0.10;0.10;;;;;;;;;;5078068;28;20036;-93
2024/01/02 04:36:37;;;;;;;0.00;0.00;;;;;;;;;;5074227;28;20078;-93
2024/01/02 04:39:03;;;;;;;0.10;0.10;;;;;;;;;;5054214;28;20029;-93
2024/01/02 04:41:29;;;;;;;0.10;0.10;;;;;;;;;;5058491;28;20029;-92
2024/01/02 04:43:55;;;;;;;0.10;0.10;;;;;;;;;;5063189;28;20028;-93
2024/01/02 04:46:21;;;;;;;0.10;0.10;;;;;;;;;;5057012;28;20024;-93
2024/01/02 04:48:47;;;;;;;0.10;0.10;;;;;;;;;;5058575;28;20518;-93
2024/01/02 04:51:13;;;;;;;0.10;0.10;;;;;;;;;;5052217;28;20032;-94
2024/01/02 04:53:38;;;;;;;0.00;0.00;;;;;;;;;;5061125;28;20028;-93
2024/01/02 04:56:05;;;;;;;0.05;0.05;;;;;;;;;;5060302;28;20035;-93
2024/01/02 04:58:31;;;;;;;0.10;0.10;;;;;;;;;;5062007;28;20032;-93
2024/01/02 05:00:56;;;;;;;0.10;0.10;;;;;;;;;;5059188;28;20059;-93
2024/01/02 05:03:23;;;;;;;0.00;0.00;;;;;;;;;;5058882;28;20119;-93
2024/01/02 05:05:49;;;;;;;0.00;0.00;;;;;;;;;;5060494;28;20029;-93
2024/01/02 05:08:15;;;;;;;0.10;0.10;;;;;;;;;;5066112;28;20024;-94
2024/01/02 05:10:41;;;;;;;0.10;0.10;;;;;;;;;;5063048;28;20028;-93
2024/01/02 05:13:07;;;;;;;0.10;0.10;;;;;;;;;;5057178;28;20035;-93
2024/01/02 05:15:32;;;;;;;0.10;0.10;;;;;;;;;;5067001;28;20379;-93
2024/01/02 05:17:58;;;;;;;0.10;0.10;;;;;;;;;;5069132;28;20017;-93
2024/01/02 05:20:24;;;;;;;0.10;0.10;;;;;;;;;;5059206;28;20021;-92
2024/01/02 05:22:50;;;;;;;0.10;0.10;;;;;;;;;;5063447;28;20033;-93
2024/01/02 05:25:16;;;;;;;0.10;0.10;;;;;;;;;;5082592;28;20495;-94
2024/01/02 05:27:42;;;;;;;0.10;0.10;;;;;;;;;;5065245;28;20111;-93
2024/01/02 05:30:08;;;;;;;0.10;0.10;;;;;;;;;;5064403;28;20178;-92
2024/01/02 05:32:34;;;;;;;0.10;0.10;;;;;;;;;;5078156;28;20029;-94
2024/01/02 05:35:00;;;;;;;0.10;0.10;;;;;;;;;;5059536;28;20124;-92
2024/01/02 05:37:26;;;;;;;0.10;0.10;;;;;;;;;;5071704;28;20028;-93
2024/01/02 05:39:52;;;;;;;0.03;0.03;;;;;;;;;;5078603;28;20033;-94
2024/01/02 05:42:18;;;;;;;0.10;0.10;;;;;;;;;;5077017;28;20036;-92
2024/01/02 05:44:44;;;;;;;0.10;0.10;;;;;;;;;;5077373;28;20054;-92
2024/01/02 05:47:10;;;;;;;0.10;0.10;;;;;;;;;;5086729;28;20084;-94
2024/01/02 05:49:36;;;;;;;0.10;0.10;;;;;;;;;;5094142;28;20012;-95
2024/01/02 05:52:02;;;;;;;0.10;0.10;;;;;;;;;;5092714;28;20033;-93
2024/01/02 05:54:28;;;;;;;0.10;0.10;;;;;;;;;;5087092;28;20062;-94
2024/01/02 05:56:54;;;;;;;0.10;0.10;;;;;;;;;;5087803;28;20028;-94
2024/01/02 05:59:19;;;;;;;0.10;0.10;;;;;;;;;;5073508;28;20028;-92
2024/01/02 06:01:45;;;;;;;0.10;0.10;;;;;;;;;;5078131;28;20033;-92
2024/01/02 06:04:11;;;;;;;0.10;0.10;;;;;;;;;;5072180;28;20104;-92
2024/01/02 06:06:37;;;;;;;0.10;0.10;;;;;;;;;;5079903;28;20063;-92
2024/01/02 06:09:03;;;;;;;0.10;0.10;;;;;;;;;;5074604;28;20033;-91
2024/01/02 06:11:29;;;;;;;0.10;0.10;;;;;;;;;;5081860;28;20054;-94
2024/01/02 06:13:55;;;;;;;0.10;0.10;;;;;;;;;;5077534;28;20033;-93
2024/01/02 06:16:21;;;;;;;0.10;0.10;;;;;;;;;;5078140;28;20020;-94
2024/01/02 06:18:47;;;;;;;0.10;0.10;;;;;;;;;;5080243;28;20028;-93
2024/01/02 06:21:13;;;;;;;0.10;0.10;;;;;;;;;;5071890;28;20021;-94
2024/01/02 06:23:39;;;;;;;0.10;0.10;;;;;;;;;;5077034;28;20040;-94
2024/01/02 06:26:05;;;;;;;0.10;0.10;;;;;;;;;;5073978;28;20423;-94
2024/01/02 06:28:31;;;;;;;0.10;0.10;;;;;;;;;;5076968;28;20036;-94
2024/01/02 06:30:56;;;;;;;0.10;0.10;;;;;;;;;;5079325;28;20041;-94
2024/01/02 06:33:24;;;;;;;0.00;0.00;;;;;;;;;;5078889;28;20036;-92
2024/01/02 06:35:50;;;;;;;0.10;0.10;;;;;;;;;;5082419;28;20072;-94
2024/01/02 06:38:16;;;;;;;0.10;0.10;;;;;;;;;;5076615;28;20445;-93
2024/01/02 06:40:42;;;;;;;0.10;0.10;;;;;;;;;;5085574;28;20405;-92
2024/01/02 06:43:08;;;;;;;0.10;0.10;;;;;;;;;;5086545;28;20040;-95
2024/01/02 06:45:34;;;;;;;0.10;0.10;;;;;;;;;;5078667;28;20032;-93
2024/01/02 06:48:00;;;;;;;0.10;0.10;;;;;;;;;;5076229;28;20031;-94
2024/01/02 06:50:26;;;;;;;0.10;0.10;;;;;;;;;;5074811;28;20054;-93
2024/01/02 06:52:53;;;;;;;0.10;0.10;;;;;;;;;;5071878;28;20095;-93
2024/01/02 06:55:19;;;;;;;0.03;0.03;;;;;;;;;;5077679;28;20029;-92
2024/01/02 06:57:46;;;;;;;0.10;0.10;;;;;;;;;;5077587;28;21372;-93
2024/01/02 07:00:13;;;;;;;0.10;0.10;;;;;;;;;;5077020;28;20036;-93
2024/01/02 07:02:39;;;;;;;0.10;0.10;;;;;;;;;;5078283;28;20442;-94
2024/01/02 07:05:05;;;;;;;0.10;0.10;;;;;;;;;;5096299;28;20021;-92
2024/01/02 07:07:31;;;;;;;0.10;0.10;;;;;;;;;;5080868;28;20037;-93
2024/01/02 07:09:57;;;;;;;0.10;0.10;;;;;;;;;;5078127;28;20475;-94
2024/01/02 07:12:23;;;;;;;0.08;0.08;;;;;;;;;;5081148;28;20046;-93
2024/01/02 07:14:49;;;;;;;0.10;0.10;;;;;;;;;;5076922;28;20032;-93
2024/01/02 07:17:19;;;;;;;0.10;0.10;;;;;;;;;;5082726;28;20020;-93
2024/01/02 07:19:45;;;;;;;0.10;0.10;;;;;;;;;;5079166;28;20048;-93
2024/01/02 07:22:11;;;;;;;0.10;0.10;;;;;;;;;;5082233;28;20040;-94
2024/01/02 07:24:37;;;;;;;0.10;0.10;;;;;;;;;;5081819;28;20050;-93
2024/01/02 07:27:03;;;;;;;0.10;0.10;;;;;;;;;;5090863;28;20104;-95
2024/01/02 07:29:29;;;;;;;0.10;0.10;;;;;;;;;;5088760;28;20032;-94
2024/01/02 07:31:55;;;;;;;0.00;0.00;;;;;;;;;;5092738;28;20036;-94
2024/01/02 07:34:21;;;;;;;0.00;0.00;;;;;;;;;;5086177;28;20059;-93
2024/01/02 07:36:46;;;;;;;0.10;0.10;;;;;;;;;;5079804;28;20033;-93
2024/01/02 07:39:12;;;;;;;0.05;0.05;;;;;;;;;;5061620;28;20031;-93
2024/01/02 07:41:38;;;;;;;0.10;0.10;;;;;;;;;;5060414;28;20088;-91
2024/01/02 07:44:06;;;;;;;0.10;0.10;;;;;;;;;;5074902;28;20085;-93
2024/01/02 07:46:32;;;;;;;0.00;0.00;;;;;;;;;;5064272;28;20028;-92
2024/01/02 07:48:58;;;;;;;0.10;0.10;;;;;;;;;;5049302;28;20025;-91
2024/01/02 07:51:24;;;;;;;0.10;0.10;;;;;;;;;;5070714;28;20021;-92
2024/01/02 07:53:51;;;;;;;0.10;0.10;;;;;;;;;;5051501;28;20025;-91
2024/01/02 07:56:21;;;;;;;0.10;0.10;;;;;;;;;;5052235;28;20053;-92
2024/01/02 07:58:46;;;;;;;;;;;6.80;99.90;;;;;;5048898;28;20115;-92
2024/01/02 08:01:13;;;;;;;0.10;0.10;;;;;;;;;;5049655;28;20450;-93
2024/01/02 08:03:39;;;;;;;0.10;0.10;;;;;;;;;;5051658;28;20494;-92
2024/01/02 08:06:05;;;;;;;0.10;0.10;;;;;;;;;;5050988;28;20028;-93
2024/01/02 08:08:31;;;;;;;0.10;0.10;;;;;;;;;;5050302;28;20036;-92
2024/01/02 08:10:57;;;;;;;0.10;0.10;;;;;;;;;;5060700;28;20102;-91
2024/01/02 08:13:23;;;;;;;0.10;0.10;;;;;;;;;;5045956;28;20491;-91
2024/01/02 08:15:49;;;;;;;0.10;0.10;;;;;;;;;;5046874;28;20499;-92
2024/01/02 08:18:15;;;;;;;0.10;0.10;;;;;;;;;;5063075;28;20023;-93
2024/01/02 08:20:40;;;;;;;0.10;0.10;;;;;;;;;;5055089;28;20025;-92
2024/01/02 08:23:07;;;;;;;0.10;0.10;;;;;;;;;;5056216;28;20031;-93
2024/01/02 08:25:33;;;;;;;0.10;0.10;;;;;;;;;;5057081;28;20469;-92
2024/01/02 08:27:59;;;;;;;0.00;0.00;;;;;;;;;;5051797;28;20131;-93
2024/01/02 08:30:25;;;;;;;0.10;0.10;;;;;;;;;;5055396;28;20120;-92
2024/01/02 08:32:51;;;;;;;0.10;0.10;;;;;;;;;;5057117;28;20032;-92
2024/01/02 08:35:17;;;;;;;0.10;0.10;;;;;;;;;;5052433;28;20040;-92
2024/01/02 08:37:44;;;;;;;0.10;0.10;;;;;;;;;;5061719;28;20025;-91
2024/01/02 08:40:11;;;;;;;0.10;0.10;;;;;;;;;;5088021;28;20049;-93
2024/01/02 08:42:37;;;;;;;0.10;0.10;;;;;;;;;;5082093;28;20403;-93
2024/01/02 08:45:04;;;;;;;0.10;0.10;;;;;;;;;;5084126;28;20021;-93
2024/01/02 08:47:31;;;;;;;0.10;0.10;;;;;;;;;;5066305;28;20024;-93
2024/01/02 08:49:56;;;;;;;0.10;0.10;;;;;;;;;;5068299;28;20036;-94
2024/01/02 08:52:22;;;;;;;0.10;0.10;;;;;;;;;;5068079;28;20033;-92
2024/01/02 08:54:48;;;;;;;0.10;0.10;;;;;;;;;;5064545;28;20032;-93
2024/01/02 08:57:15;;;;;;;0.10;0.10;;;;;;;;;;5067348;28;20052;-92
2024/01/02 08:59:41;;;;;;;0.10;0.10;;;;;;;;;;5070207;28;20029;-92
2024/01/02 09:02:07;;;;;;;0.10;0.10;;;;;;;;;;5084838;28;20037;-94
2024/01/02 09:04:46;;;;;;;;;;;;;;;;;;;;;
2024/01/02 09:07:27;;;;;;;0.10;0.10;;;;;;;;;;5068362;28;20017;-92
2024/01/02 09:09:53;;;;;;;0.10;0.10;;;;;;;;;;5059417;28;20079;-92
2024/01/02 09:12:19;;;;;;;0.10;0.10;;;;;;;;;;5073324;28;20028;-92
2024/01/02 09:15:05;;;;;;;0.05;0.05;;;;;;;;;;5075683;28;20384;-91
2024/01/02 09:17:33;;;;;;;0.10;0.10;;;;;;;;;;5078688;28;20032;-92
2024/01/02 09:19:59;;;;;;;0.10;0.10;;;;;;;;;;5089653;28;20510;-91
2024/01/02 09:22:25;;;;;;;0.10;0.10;;;;;;;;;;5064916;28;20024;-92
2024/01/02 09:24:52;;;;;;;0.10;0.10;;;8.00;99.90;;;;;;5071668;28;20039;-91
2024/01/02 09:27:18;;;;;;;0.10;0.10;;;;;;;;;;5075223;28;20052;-91
2024/01/02 09:29:44;;;;;;;0.10;0.10;;;;;;;;;;5067810;28;20039;-92
2024/01/02 09:32:11;;;;;;;0.10;0.10;;;;;;;;;;5072786;28;20041;-94
2024/01/02 09:34:37;;;;;;;0.10;0.10;;;;;;;;;;5066342;28;20066;-93
2024/01/02 09:37:05;;;;;;;0.10;0.10;;;;;;;;;;5069084;28;20117;-92
2024/01/02 09:39:31;;;;;;;0.10;0.10;;;;;;;;;;5090708;28;20028;-91
2024/01/02 09:42:20;;;;;;;0.10;0.10;;;8.50;99.90;;;;;;5065662;28;20032;-91
2024/01/02 09:44:53;;;;;;;0.00;0.00;;;;;;;;;;5066751;28;20025;-91
2024/01/02 09:47:31;;;;;;;0.10;0.10;;;;;;;;;;5074025;28;20024;-90
2024/01/02 09:50:02;;;;;;;0.10;0.10;;;;;;;;;;5067463;28;20089;-92
2024/01/02 09:53:05;;;;;;;0.10;0.10;;;;;;;;;;5062271;28;20094;-91
2024/01/02 09:56:05;;;;;;;0.10;0.10;;;8.90;99.90;;;;;;5082988;28;20082;-91
2024/01/02 09:58:44;;;;;;;0.00;0.00;;;;;;;;;;5068465;28;20032;-91
2024/01/02 10:01:37;;;;;;;0.03;0.03;;;9.10;99.90;;;;;;5072083;28;20036;-91
2024/01/02 10:04:23;;;;;;;0.10;0.10;;;;;;;;;;5069869;28;20032;-91
2024/01/02 10:07:38;;;;;;;0.10;0.10;;;9.30;99.90;;;;;;5087236;28;20070;-91
2024/01/02 10:10:32;;;;;;;0.10;0.10;;;8.80;99.90;;;;;;5066597;28;20025;-91
2024/01/02 10:13:07;;;;;;;0.05;0.05;;;;;;;;;;5072682;28;20406;-91
2024/01/02 10:15:54;;;;;;;0.10;0.10;;;9.50;99.90;;;;;;5066767;28;20025;-92
2024/01/02 10:18:53;;;;;;;0.00;0.00;;;9.70;99.90;;;;;;5067897;28;20021;-92
2024/01/02 10:21:51;;;;;;;0.00;0.00;;;9.70;99.90;;;;;;5071591;28;20024;-91
2024/01/02 10:24:37;;;;;;;0.00;0.00;;;;;;;;;;5071973;28;20154;-92
2024/01/02 10:27:05;;;;;;;0.00;0.00;;;;;;;;;;5082270;28;20036;-93
2024/01/02 10:29:50;;;;;;;0.00;0.00;;;;;;;;;;5069344;28;20036;-91
2024/01/02 10:32:22;;;;;;;0.00;0.00;;;;;;;;;;5080999;28;20048;-91
2024/01/02 10:35:04;;;;;;;0.00;0.00;;;10.10;99.90;;;;;;5072481;28;20159;-92
2024/01/02 10:37:33;;;;;;;0.00;0.00;;;;;;;;;;5066911;28;20032;-92
2024/01/02 10:40:04;;;;;;;0.00;0.00;;;;;;;;;;5069193;28;20510;-91
2024/01/02 10:42:49;;;;;;;0.00;0.00;;;;;;;;;;5070966;28;20033;-92
2024/01/02 10:45:22;;;;;;;0.00;0.00;;;;;;;;;;5084897;28;20028;-91
2024/01/02 10:48:01;;;;;;;0.00;0.00;;;;;;;;;;5069884;28;20032;-93
2024/01/02 10:50:32;;;;;;;0.00;0.00;;;;;;;;;;5064792;28;20119;-91
2024/01/02 10:53:07;;;;;;;0.00;0.00;;;;;;;;;;5066483;28;20028;-91
2024/01/02 10:55:39;;;;;;;0.00;0.00;;;;;;;;;;5069794;28;20028;-92
2024/01/02 10:58:27;;;;;;;0.00;0.00;;;;;;;;;;5068613;28;20472;-92
2024/01/02 11:01:09;;;;;;;0.00;0.00;;;10.70;99.90;;;;;;5068084;28;20447;-92
2024/01/02 11:03:57;;;;;;;0.00;0.00;;;10.70;99.90;;;;;;5062254;28;20487;-91
2024/01/02 11:06:42;;;;;;;0.00;0.00;;;10.80;99.90;;;;;;5053809;28;20035;-92
2024/01/02 11:09:28;;;;;;;0.00;0.00;;;10.90;99.90;;;;;;5068181;28;20515;-91
2024/01/02 11:11:57;;;;;;;0.00;0.00;;;10.90;99.90;;;;;;5071331;28;20032;-91
2024/01/02 11:14:25;;;;;;;0.00;0.00;;;11.00;99.90;;;;;;5069627;28;20458;-91
2024/01/02 11:16:53;;;;;;;0.00;0.00;;;;;;;;;;5053603;28;20699;-91
2024/01/02 11:19:27;;;;;;;0.00;0.00;;;11.00;99.90;;;;;;5070042;28;20091;-91
2024/01/02 11:22:06;;;;;;;0.00;0.00;;;11.00;99.90;;;;;;5064560;28;20028;-90
2024/01/02 11:24:34;;;;;;;0.00;0.00;;;;;;;;;;5071657;28;20029;-91
2024/01/02 11:27:03;;;;;;;0.00;0.00;;;;;;;;;;5071637;28;20033;-91
2024/01/02 11:29:34;;;;;;;0.00;0.00;;;11.10;99.90;;;;;;5091412;28;20028;-92
2024/01/02 11:32:04;;;;;;;0.00;0.00;;;;;;;;;;5068091;28;20506;-91
2024/01/02 11:34:30;;;;;;;0.00;0.00;;;;;;;;;;5067037;28;20045;-91
2024/01/02 11:37:20;;;;;;;0.00;0.00;;;;;;;;;;5086653;28;20031;-91
2024/01/02 11:40:11;;;;;;;0.00;0.00;;;11.30;99.90;;;;;;5044659;28;20098;-92
2024/01/02 11:42:37;;;;;;;0.00;0.00;;;;;;;;;;5052595;28;20029;-90
2024/01/02 11:45:12;;;;;;;0.00;0.00;;;;;;;;;;5051357;28;20028;-91
2024/01/02 11:47:43;;;;;;;0.00;0.00;;;;;;;;;;5044342;28;20497;-91
2024/01/02 11:50:09;;;;;;;0.00;0.00;;;;;;;;;;5068701;28;20021;-91
2024/01/02 11:52:44;;;;;;;0.00;0.00;;;;;;;;;;5048522;28;20032;-92
2024/01/02 11:55:15;;;;;;;0.00;0.00;;;;;;;;;;5084685;28;20115;-92
2024/01/02 11:57:54;;;;;;;0.00;0.00;;;;;;;;;;5063651;28;20054;-91
2024/01/02 12:00:26;;;;;;;0.00;0.00;;;;;;;;;;5056465;28;20021;-92
2024/01/02 12:02:52;;;;;;;0.00;0.00;;;;;;;;;;5063902;28;20020;-92
2024/01/02 12:05:41;;;;;;;0.00;0.00;;;11.50;99.90;;;;;;5053169;28;20074;-91
2024/01/02 12:08:08;;;;;;;0.00;0.00;;;;;;;;;;5055659;28;20033;-91
2024/01/02 12:10:37;;;;;;;0.00;0.00;;;;;;;;;;5061075;28;20471;-91
2024/01/02 12:13:14;;;;;;;0.00;0.00;;;;;;;;;;5048018;28;20035;-91
2024/01/02 12:15:52;;;;;;;0.00;0.00;;;11.40;99.90;;;;;;5045353;28;20021;-92
2024/01/02 12:18:18;;;;;;;0.00;0.00;;;;;;;;;;5063799;28;20025;-91
2024/01/02 12:20:56;;;;;;;0.00;0.00;;;11.40;99.90;;;;;;5048877;28;20031;-91
2024/01/02 12:23:23;;;;;;;0.00;0.00;;;;;;;;;;5050670;28;20033;-92
2024/01/02 12:25:50;;;;;;;0.00;0.00;;;;;;;;;;5057212;28;20036;-91
2024/01/02 12:28:18;;;;;;;0.00;0.00;;;;;;;;;;5055901;28;20083;-91
2024/01/02 12:31:04;;;;;;;0.00;0.00;;;;;;;;;;5060275;28;20479;-92
2024/01/02 12:33:40;;;;;;;0.00;0.00;;;;;;;;;;5032908;28;20045;-92
2024/01/02 12:36:25;;;;;;;0.00;0.00;;;;;;;;;;5068752;28;20024;-93
2024/01/02 12:38:52;;;;;;;0.00;0.00;;;;;;;;;;5081297;28;20468;-91
2024/01/02 12:41:29;;;;;;;0.00;0.00;;;;;;;;;;5072457;28;20036;-92
2024/01/02 12:43:59;;;;;;;0.00;0.00;;;;;;;;;;5063146;28;20029;-93
2024/01/02 12:46:26;;;;;;;;;;;11.60;99.90;;;;;;5083684;28;20033;-93
2024/01/02 12:49:08;;;;;;;0.00;0.00;;;11.50;99.90;;;;;;5093568;28;19957;-91
2024/01/02 12:51:36;;;;;;;0.00;0.00;;;;;;;;;;5072871;28;20085;-92
2024/01/02 12:54:03;;;;;;;0.00;0.00;;;;;;;;;;5062644;28;20029;-91
2024/01/02 12:56:32;;;;;;;0.00;0.00;;;;;;;;;;5075637;28;20106;-92
2024/01/02 12:59:03;;;;;;;0.00;0.00;;;11.50;99.90;;;;;;5064553;28;20036;-91
2024/01/02 17:39:14;;;;;;;0.00;0.00;;;;;;;;;;5062581;28;20491;-87
2024/01/02 17:41:43;;;;;;;0.10;0.10;;;9.90;99.90;;;;;;5049469;28;20036;-89
2024/01/02 17:44:09;;;;;;;0.10;0.10;;;;;;;;;;5048696;28;20036;-87
2024/01/02 17:46:39;;;;;;;0.00;0.00;;;10.00;99.90;;;;;;5049604;28;20036;-87
2024/01/02 17:49:05;;;;;;;0.00;0.00;;;10.00;99.90;;;;;;5066798;28;20115;-87
2024/01/02 17:51:31;;;;;;;0.00;0.00;;;10.00;99.90;;;;;;5059902;28;21363;-85
2024/01/02 17:53:58;;;;;;;0.00;0.00;;;;;;;;;;5051078;28;20478;-87
2024/01/02 17:56:24;;;;;;;0.00;0.00;;;;;;;;;;5047688;28;20062;-87
2024/01/02 17:58:59;;;;;;;0.00;0.00;;;10.00;99.90;;;;;;5036762;28;20082;-88
2024/01/02 18:01:26;;;;;;;0.10;0.10;;;9.90;99.90;;;;;;5051467;28;20025;-87
2024/01/02 18:04:13;;;;;;;0.00;0.00;;;10.00;99.90;;;;;;5061327;28;20126;-89
2024/01/02 18:07:03;;;;;;;0.00;0.00;;;10.00;99.90;;;;;;5051191;28;20034;-88
2024/01/02 18:09:58;;;;;;;0.00;0.00;;;10.00;99.90;;;;;;5049521;28;20033;-87
2024/01/02 18:12:24;;;;;;;0.00;0.00;;;;;;;;;;5050628;28;20128;-89
2024/01/02 18:15:13;;;;;;;0.00;0.00;;;10.00;99.90;;;;;;5049838;28;20150;-87
2024/01/02 18:18:07;;;;;;;0.00;0.00;;;10.10;99.90;;;;;;5047358;28;20027;-88
2024/01/02 18:20:53;;;;;;;0.00;0.00;;;9.90;99.90;;;;;;5058258;28;20558;-87
2024/01/02 18:23:22;;;;;;;0.00;0.00;;;10.10;99.90;;;;;;5053010;28;20031;-87
2024/01/02 18:25:51;;;;;;;0.03;0.03;;;10.20;99.90;;;;;;5046180;28;20093;-88
2024/01/02 18:28:37;;;;;;;0.00;0.00;;;10.10;99.90;;;;;;5044923;28;20043;-88
2024/01/02 18:31:05;;;;;;;0.00;0.00;;;10.00;99.90;;;;;;5043863;28;20278;-87
2024/01/02 18:34:00;;;;;;;0.00;0.00;;;10.20;99.90;;;;;;5066235;28;20063;-88
2024/01/02 18:36:56;;;;;;;0.10;0.10;;;9.90;99.90;;;;;;5048804;28;20500;-85
2024/01/02 18:39:43;;;;;;;0.00;0.00;;;9.80;99.90;;;;;;5052843;28;20028;-90
2024/01/02 18:42:09;;;;;;;0.08;0.08;;;;;;;;;;5056888;28;20025;-87
2024/01/02 18:44:58;;;;;;;0.00;0.00;;;9.90;99.90;;;;;;5049418;28;20555;-88
2024/01/02 18:47:31;;;;;;;0.00;0.00;;;10.00;99.90;;;;;;5043353;28;20066;-87
2024/01/02 18:49:57;;;;;;;0.00;0.00;;;10.20;99.90;;;;;;5065876;28;20082;-89
2024/01/02 18:52:51;;;;;;;0.00;0.00;;;10.10;99.90;;;;;;5049673;28;20103;-88
2024/01/02 18:55:17;;;;;;;0.00;0.00;;;10.10;99.90;;;;;;5069198;28;20031;-89
2024/01/02 18:57:43;;;;;;;0.00;0.00;;;;;;;;;;5050305;28;20112;-89
2024/01/02 19:00:11;;;;;;;0.00;0.00;;;10.00;99.90;;;;;;5050232;28;20143;-90
2024/01/02 19:02:51;;;;;;;0.00;0.00;;;10.10;99.90;;;;;;5048881;28;20082;-87
2024/01/02 19:05:18;;;;;;;0.00;0.00;;;10.10;99.90;;;;;;5047871;28;20064;-87
2024/01/02 19:08:04;;;;;;;0.00;0.00;;;10.10;99.90;;;;;;5043287;28;20039;-86
2024/01/02 19:10:32;;;;;;;0.00;0.00;;;10.10;99.90;;;;;;5061512;28;20025;-88
2024/01/02 19:12:59;;;;;;;0.00;0.00;;;10.00;99.90;;;;;;5045585;28;20437;-88